createdAt,value
2022-08-01T00:00:40.913Z,155620.91
2022-08-01T00:03:08.351Z,155635.22
2022-08-01T00:05:35.870Z,155662.50
2022-08-01T00:08:03.288Z,155648.19
2022-08-01T00:10:30.706Z,155610.53
2022-08-01T00:12:58.128Z,155635.22
2022-08-01T00:15:25.556Z,155610.53
2022-08-01T00:17:54.269Z,155591.09
2022-08-01T00:20:21.716Z,155601.47
2022-08-01T00:22:49.111Z,155588.47
2022-08-01T00:25:16.531Z,155591.09
2022-08-01T00:27:43.961Z,155592.34
2022-08-01T00:30:14.653Z,155585.88
2022-08-01T00:32:43.323Z,155557.28
2022-08-01T00:35:12.860Z,155540.41
2022-08-01T00:37:40.291Z,155533.94
2022-08-01T00:40:09.062Z,155572.88
2022-08-01T00:42:40.355Z,155510.53
2022-08-01T00:45:11.334Z,155518.34
2022-08-01T00:47:38.814Z,155518.34
2022-08-01T00:50:07.084Z,155466.38
2022-08-01T00:52:35.996Z,155468.91
2022-08-01T00:55:03.604Z,155445.56
2022-08-01T00:58:03.088Z,155431.28
2022-08-01T01:00:19.962Z,155406.63
2022-08-01T01:02:55.172Z,155337.81
2022-08-01T01:05:22.714Z,155300.16
2022-08-01T01:07:58.359Z,155298.84
2022-08-01T01:10:34.322Z,155253.41
2022-08-01T01:13:06.382Z,155215.78
2022-08-01T01:15:40.446Z,155227.47
2022-08-01T01:18:11.248Z,155205.44
2022-08-01T01:20:40.821Z,155125.00
2022-08-01T01:23:23.385Z,155149.63
2022-08-01T01:26:12.259Z,155134.06
2022-08-01T01:29:06.454Z,155115.94
2022-08-01T01:31:43.637Z,155141.88
2022-08-01T01:34:14.400Z,155224.84
2022-08-01T01:36:44.456Z,155224.84
2022-08-01T01:39:15.104Z,155245.66
2022-08-01T01:41:44.959Z,155243.03
2022-08-01T01:44:14.107Z,155224.84
2022-08-01T01:46:44.240Z,155149.63
2022-08-01T01:49:12.697Z,155172.97
2022-08-01T01:51:53.302Z,155206.72
2022-08-01T01:54:35.018Z,155184.66
2022-08-01T01:57:05.195Z,155172.97
2022-08-01T01:59:36.381Z,155192.47
2022-08-01T02:02:07.533Z,155192.47
2022-08-01T02:04:38.894Z,155175.56
2022-08-01T02:07:09.840Z,155193.75
2022-08-01T02:09:39.114Z,155178.19
2022-08-01T02:12:09.128Z,155167.81
2022-08-01T02:14:37.627Z,155180.78
2022-08-01T02:17:06.837Z,155206.72
2022-08-01T02:19:38.016Z,155228.78
2022-08-01T02:22:09.952Z,155250.84
2022-08-01T02:24:41.488Z,155248.25
2022-08-01T02:27:12.286Z,155276.81
2022-08-01T02:29:42.817Z,155279.34
2022-08-01T02:32:13.857Z,155271.59
2022-08-01T02:34:42.956Z,155259.94
2022-08-01T02:37:11.776Z,155246.94
2022-08-01T02:39:40.673Z,155258.63
2022-08-01T02:42:10.704Z,155235.28
2022-08-01T02:44:42.034Z,155232.69
2022-08-01T02:47:11.290Z,155267.69
2022-08-01T02:49:44.132Z,155284.56
2022-08-01T02:52:17.389Z,155296.25
2022-08-01T02:54:47.489Z,155300.16
2022-08-01T02:57:16.775Z,155307.97
2022-08-01T02:59:48.703Z,155326.16
2022-08-01T03:02:19.559Z,155320.94
2022-08-01T03:04:48.073Z,155320.94
2022-08-01T03:07:19.044Z,155309.28
2022-08-01T03:09:49.795Z,155281.97
2022-08-01T03:12:21.636Z,155258.63
2022-08-01T03:14:51.388Z,155253.41
2022-08-01T03:17:23.014Z,155258.63
2022-08-01T03:19:52.045Z,155254.72
2022-08-01T03:22:23.157Z,155259.94
2022-08-01T03:24:54.600Z,155285.88
2022-08-01T03:27:25.155Z,155287.19
2022-08-01T03:29:53.553Z,155297.53
2022-08-01T03:32:23.905Z,155292.38
2022-08-01T03:34:51.445Z,155294.94
2022-08-01T03:37:25.503Z,155350.81
2022-08-01T03:39:56.207Z,155318.38
2022-08-01T03:42:30.740Z,155320.94
2022-08-01T03:45:01.209Z,155294.94
2022-08-01T03:47:34.344Z,155307.97
2022-08-01T03:50:12.441Z,155352.09
2022-08-01T03:52:43.575Z,155319.69
2022-08-01T03:55:13.282Z,155313.19
2022-08-01T03:57:41.084Z,155309.28
2022-08-01T04:00:10.188Z,155309.28
2022-08-01T04:02:40.112Z,155326.16
2022-08-01T04:05:08.523Z,155322.25
2022-08-01T04:07:37.417Z,155315.78
2022-08-01T04:10:05.731Z,155317.09
2022-08-01T04:12:33.765Z,155324.84
2022-08-01T04:15:01.328Z,155306.66
2022-08-01T04:17:28.746Z,155279.34
2022-08-01T04:19:57.520Z,155313.19
2022-08-01T04:22:24.968Z,155324.84
2022-08-01T04:24:57.408Z,155336.53
2022-08-01T04:27:50.100Z,155330.06
2022-08-01T04:30:20.876Z,155349.50
2022-08-01T04:32:50.764Z,155348.19
2022-08-01T04:35:23.466Z,155393.66
2022-08-01T04:38:11.288Z,155410.53
2022-08-01T04:40:40.134Z,155481.94
2022-08-01T04:43:07.770Z,155518.34
2022-08-01T04:45:35.996Z,155543.00
2022-08-01T04:48:05.001Z,155559.91
2022-08-01T04:50:33.928Z,155553.38
2022-08-01T04:53:03.972Z,155549.53
2022-08-01T04:55:32.285Z,155536.53
2022-08-01T04:57:59.776Z,155497.50
2022-08-01T05:00:29.387Z,155541.69
2022-08-01T05:02:58.346Z,155468.91
2022-08-01T05:05:27.233Z,155411.84
2022-08-01T05:07:56.771Z,155398.84
2022-08-01T05:10:24.218Z,155401.41
2022-08-01T05:12:51.630Z,155406.63
2022-08-01T05:15:19.111Z,155414.44
2022-08-01T05:17:47.739Z,155370.28
2022-08-01T05:20:15.496Z,155374.16
2022-08-01T05:22:43.639Z,155359.94
2022-08-01T05:25:12.468Z,155374.16
2022-08-01T05:27:49.989Z,155350.81
2022-08-01T05:30:18.669Z,155333.91
2022-08-01T05:32:46.214Z,155370.28
2022-08-01T05:35:13.636Z,155398.84
2022-08-01T05:37:41.075Z,155427.41
2022-08-01T05:40:09.697Z,155470.22
2022-08-01T05:42:38.503Z,155526.09
2022-08-01T05:45:07.145Z,155554.69
2022-08-01T05:47:34.580Z,155661.19
2022-08-01T05:50:01.987Z,155669.00
2022-08-01T05:52:31.796Z,155689.75
2022-08-01T05:54:59.223Z,155671.63
2022-08-01T05:57:26.817Z,155609.22
2022-08-01T05:59:55.960Z,155591.09
2022-08-01T06:02:23.495Z,155546.91
2022-08-01T06:04:51.025Z,155540.41
2022-08-01T06:07:18.612Z,155567.69
2022-08-01T06:09:46.032Z,155546.91
2022-08-01T06:12:13.433Z,155515.72
2022-08-01T06:14:40.857Z,155463.75
2022-08-01T06:17:09.573Z,155481.94
2022-08-01T06:19:37.004Z,155485.81
2022-08-01T06:22:04.717Z,155493.63
2022-08-01T06:24:32.349Z,155522.25
2022-08-01T06:26:59.760Z,155539.09
2022-08-01T06:29:27.172Z,155507.91
2022-08-01T06:31:58.759Z,155507.91
2022-08-01T06:34:27.599Z,155491.03
2022-08-01T06:36:55.003Z,155523.50
2022-08-01T06:39:22.484Z,155556.00
2022-08-01T06:41:49.945Z,155543.00
2022-08-01T06:44:17.380Z,155557.28
2022-08-01T06:46:45.132Z,155539.09
2022-08-01T06:49:12.635Z,155528.72
2022-08-01T06:51:41.559Z,155559.91
2022-08-01T06:54:08.970Z,155583.25
2022-08-01T06:56:36.435Z,155578.06
2022-08-01T06:59:03.961Z,155494.94
2022-08-01T07:01:35.173Z,155437.78
2022-08-01T07:04:03.448Z,155415.69
2022-08-01T07:06:31.230Z,155431.28
2022-08-01T07:09:08.267Z,155453.38
2022-08-01T07:11:36.986Z,155296.25
2022-08-01T07:14:04.477Z,150940.06
2022-08-01T07:16:31.944Z,119386.53
2022-08-01T07:18:59.348Z,101941.41
2022-08-01T07:21:40.630Z,85297.94
2022-08-01T07:24:12.948Z,88430.91
2022-08-01T07:26:41.308Z,78745.50
2022-08-01T07:29:20.430Z,76333.72
2022-08-01T07:31:47.873Z,81852.44
2022-08-01T07:34:15.266Z,82550.44
2022-08-01T07:36:42.670Z,80499.63
2022-08-01T07:39:11.446Z,81534.22
2022-08-01T07:41:53.412Z,74992.38
2022-08-01T07:44:28.355Z,79849.47
2022-08-01T07:46:56.803Z,82928.00
2022-08-01T07:49:24.344Z,75667.91
2022-08-01T07:52:04.010Z,70861.78
2022-08-01T07:54:40.490Z,78870.22
2022-08-01T07:57:08.029Z,100789.66
2022-08-01T07:59:35.927Z,115464.94
2022-08-01T08:02:03.631Z,111583.06
2022-08-01T08:04:31.545Z,114464.66
2022-08-01T08:06:59.020Z,153596.94
2022-08-01T08:09:26.417Z,146119.63
2022-08-01T08:11:55.160Z,139790.44
2022-08-01T08:14:23.705Z,132726.31
2022-08-01T08:17:00.083Z,155665.09
2022-08-01T08:19:37.359Z,148570.25
2022-08-01T08:22:06.668Z,149712.47
2022-08-01T08:24:34.344Z,155741.78
2022-08-01T08:27:03.647Z,155736.59
2022-08-01T08:29:33.319Z,155814.56
2022-08-01T08:32:01.656Z,155960.16
2022-08-01T08:34:30.657Z,156004.38
2022-08-01T08:36:59.990Z,155957.59
2022-08-01T08:39:30.409Z,156048.59
2022-08-01T08:41:59.570Z,156053.78
2022-08-01T08:44:28.372Z,155860.06
2022-08-01T08:46:59.642Z,155762.59
2022-08-01T08:49:36.253Z,155770.38
2022-08-01T08:52:09.010Z,155771.66
2022-08-01T08:54:38.882Z,155736.59
2022-08-01T08:57:07.854Z,155887.34
2022-08-01T08:59:36.751Z,156009.59
2022-08-01T09:02:07.922Z,156082.44
2022-08-01T09:04:36.046Z,156112.34
2022-08-01T09:07:05.886Z,156129.28
2022-08-01T09:09:33.815Z,156177.38
2022-08-01T09:12:01.247Z,156198.22
2022-08-01T09:14:31.267Z,156173.50
2022-08-01T09:17:07.523Z,156148.75
2022-08-01T09:19:41.438Z,156135.75
2022-08-01T09:22:10.958Z,156173.50
2022-08-01T09:24:40.051Z,156155.28
2022-08-01T09:27:19.865Z,156148.75
2022-08-01T09:29:49.850Z,156252.84
2022-08-01T09:32:34.750Z,156302.31
2022-08-01T09:35:30.965Z,156275.00
2022-08-01T09:38:19.313Z,156295.84
2022-08-01T09:40:55.047Z,156388.22
2022-08-01T09:43:25.254Z,156418.16
2022-08-01T09:45:55.262Z,156467.66
2022-08-01T09:48:27.993Z,156465.03
2022-08-01T09:51:04.169Z,156390.84
2022-08-01T09:53:50.954Z,156403.84
2022-08-01T09:56:19.195Z,156511.94
2022-08-01T09:59:00.965Z,156678.59
2022-08-01T10:01:35.946Z,156668.19
2022-08-01T10:04:09.841Z,156610.88
2022-08-01T10:06:38.435Z,156524.94
2022-08-01T10:09:06.100Z,156461.13
2022-08-01T10:11:36.555Z,156509.31
2022-08-01T10:14:05.627Z,156504.09
2022-08-01T10:16:35.615Z,156565.28
2022-08-01T10:19:06.906Z,156537.94
2022-08-01T10:21:58.381Z,156565.28
2022-08-01T10:24:27.959Z,156577.00
2022-08-01T10:27:05.970Z,156650.00
2022-08-01T10:29:46.011Z,156630.44
2022-08-01T10:32:14.941Z,156595.25
2022-08-01T10:34:44.860Z,156544.44
2022-08-01T10:37:14.959Z,156537.94
2022-08-01T10:39:43.271Z,156540.56
2022-08-01T10:42:15.765Z,156539.25
2022-08-01T10:44:47.145Z,156500.22
2022-08-01T10:47:23.274Z,156496.28
2022-08-01T10:50:03.647Z,156548.34
2022-08-01T10:52:36.540Z,156510.63
2022-08-01T10:55:10.274Z,156495.00
2022-08-01T10:57:52.570Z,156528.84
2022-08-01T11:00:21.428Z,156501.53
2022-08-01T11:03:01.466Z,156579.63
2022-08-01T11:05:32.291Z,156480.66
2022-08-01T11:08:05.033Z,156532.72
2022-08-01T11:10:39.825Z,156530.13
2022-08-01T11:13:08.822Z,156686.44
2022-08-01T11:15:36.853Z,156751.56
2022-08-01T11:18:33.783Z,156834.97
2022-08-01T11:21:56.274Z,156884.47
2022-08-01T11:23:54.420Z,156941.88
2022-08-01T11:26:29.342Z,157029.22
2022-08-01T11:29:22.007Z,156991.41
2022-08-01T11:31:51.081Z,156991.41
2022-08-01T11:34:18.582Z,157119.19
2022-08-01T11:37:01.686Z,157188.28
2022-08-01T11:39:36.800Z,156986.19
2022-08-01T11:42:20.816Z,157073.47
2022-08-01T11:44:52.390Z,156936.63
2022-08-01T11:47:21.251Z,156771.13
2022-08-01T11:49:51.684Z,156691.66
2022-08-01T11:52:25.416Z,156526.25
2022-08-01T11:54:56.170Z,156332.25
2022-08-01T11:57:34.292Z,156131.88
2022-08-01T12:00:08.783Z,155923.78
2022-08-01T12:02:37.125Z,155903.00
2022-08-01T12:05:08.401Z,155900.41
2022-08-01T12:07:40.585Z,155990.06
2022-08-01T12:10:10.998Z,156049.91
2022-08-01T12:12:43.613Z,156069.38
2022-08-01T12:15:12.448Z,156156.59
2022-08-01T12:17:46.973Z,156330.94
2022-08-01T12:20:31.238Z,156392.13
2022-08-01T12:23:00.883Z,156498.91
2022-08-01T12:25:29.979Z,156636.97
2022-08-01T12:28:01.973Z,156773.72
2022-08-01T12:30:31.646Z,156829.75
2022-08-01T12:32:59.900Z,156689.06
2022-08-01T12:35:29.146Z,156656.47
2022-08-01T12:37:58.406Z,156527.56
2022-08-01T12:40:28.697Z,156506.69
2022-08-01T12:42:58.481Z,156459.88
2022-08-01T12:45:27.659Z,156478.06
2022-08-01T12:47:58.479Z,156537.94
2022-08-01T12:50:29.127Z,156605.66
2022-08-01T12:52:56.796Z,156673.41
2022-08-01T12:55:34.246Z,156724.19
2022-08-01T12:58:15.284Z,156605.66
2022-08-01T13:00:45.459Z,156681.22
2022-08-01T13:03:15.222Z,156605.66
2022-08-01T13:05:44.829Z,156653.88
2022-08-01T13:08:13.434Z,156785.50
2022-08-01T13:10:42.097Z,156911.84
2022-08-01T13:13:11.463Z,156900.13
2022-08-01T13:15:49.834Z,156859.72
2022-08-01T13:18:27.339Z,156811.53
2022-08-01T13:21:10.445Z,156934.00
2022-08-01T13:24:03.407Z,157017.47
2022-08-01T13:26:39.719Z,157005.72
2022-08-01T13:29:10.191Z,156949.72
2022-08-01T13:31:39.276Z,156944.47
2022-08-01T13:34:07.422Z,156902.72
2022-08-01T13:36:35.045Z,156957.50
2022-08-01T13:39:20.414Z,156999.22
2022-08-01T13:41:48.550Z,156941.88
2022-08-01T13:44:17.390Z,156883.16
2022-08-01T13:46:49.278Z,156855.81
2022-08-01T13:49:17.698Z,156918.38
2022-08-01T13:51:47.266Z,156990.09
2022-08-01T13:54:14.711Z,157023.97
2022-08-01T13:56:42.593Z,156973.16
2022-08-01T13:59:09.991Z,157009.63
2022-08-01T14:01:38.849Z,157004.44
2022-08-01T14:04:06.421Z,156948.41
2022-08-01T14:06:35.899Z,156824.56
2022-08-01T14:09:03.827Z,156930.09
2022-08-01T14:11:46.198Z,156978.34
2022-08-01T14:14:13.850Z,157014.88
2022-08-01T14:16:45.902Z,157014.88
2022-08-01T14:19:13.517Z,157021.34
2022-08-01T14:21:40.923Z,156986.19
2022-08-01T14:24:09.281Z,157000.53
2022-08-01T14:26:36.813Z,157001.84
2022-08-01T14:29:04.370Z,157023.97
2022-08-01T14:31:34.338Z,156910.53
2022-08-01T14:34:03.880Z,156855.81
2022-08-01T14:36:32.534Z,156915.75
2022-08-01T14:39:05.943Z,156919.69
2022-08-01T14:41:34.644Z,156919.69
2022-08-01T14:44:02.430Z,156999.22
2022-08-01T14:46:29.878Z,156919.69
2022-08-01T14:48:59.150Z,156954.88
2022-08-01T14:51:28.347Z,156950.97
2022-08-01T14:53:56.644Z,156902.72
2022-08-01T14:56:24.774Z,156915.75
2022-08-01T14:58:52.180Z,156845.38
2022-08-01T15:01:19.721Z,156850.63
2022-08-01T15:03:48.846Z,156730.75
2022-08-01T15:06:16.291Z,156738.53
2022-08-01T15:08:45.439Z,156735.91
2022-08-01T15:11:12.955Z,156733.31
2022-08-01T15:13:42.583Z,156790.69
2022-08-01T15:16:11.985Z,156806.31
2022-08-01T15:18:39.600Z,156834.97
2022-08-01T15:21:07.165Z,156828.44
2022-08-01T15:23:34.570Z,156829.75
2022-08-01T15:26:03.329Z,156806.31
2022-08-01T15:28:30.762Z,156752.84
2022-08-01T15:30:59.714Z,156696.84
2022-08-01T15:33:27.131Z,156700.78
2022-08-01T15:35:54.552Z,156769.81
2022-08-01T15:38:22.616Z,156793.28
2022-08-01T15:40:50.128Z,156819.34
2022-08-01T15:43:18.873Z,156785.50
2022-08-01T15:45:48.233Z,156746.38
2022-08-01T15:48:16.564Z,156760.66
2022-08-01T15:50:44.003Z,156678.59
2022-08-01T15:53:11.540Z,156702.06
2022-08-01T15:55:40.027Z,156656.47
2022-08-01T15:58:08.185Z,156681.22
2022-08-01T16:00:40.620Z,156647.38
2022-08-01T16:03:10.054Z,156629.13
2022-08-01T16:05:43.147Z,156562.69
2022-08-01T16:08:11.838Z,156593.94
2022-08-01T16:10:39.306Z,156565.28
2022-08-01T16:13:07.484Z,156595.25
2022-08-01T16:15:36.563Z,156596.56
2022-08-01T16:18:06.188Z,156639.53
2022-08-01T16:20:34.019Z,156663.00
2022-08-01T16:23:01.486Z,156661.72
2022-08-01T16:25:28.901Z,156704.69
2022-08-01T16:27:56.344Z,156670.81
2022-08-01T16:30:24.007Z,156689.06
2022-08-01T16:32:52.482Z,156709.88
2022-08-01T16:35:22.609Z,156738.53
2022-08-01T16:37:51.921Z,156743.75
2022-08-01T16:40:19.350Z,156735.91
2022-08-01T16:42:46.759Z,156748.94
2022-08-01T16:45:15.508Z,156708.56
2022-08-01T16:47:43.456Z,156647.38
2022-08-01T16:50:10.867Z,156629.13
2022-08-01T16:52:41.953Z,156644.75
2022-08-01T16:55:10.978Z,156668.19
2022-08-01T16:57:38.691Z,156625.22
2022-08-01T17:00:08.114Z,156605.66
2022-08-01T17:02:35.867Z,156566.59
2022-08-01T17:05:08.572Z,156558.75
2022-08-01T17:07:42.003Z,156509.31
2022-08-01T17:10:11.661Z,156532.72
2022-08-01T17:12:39.459Z,156488.47
2022-08-01T17:15:08.205Z,156489.75
2022-08-01T17:17:35.809Z,156467.66
2022-08-01T17:20:03.332Z,156474.19
2022-08-01T17:22:30.782Z,156420.72
2022-08-01T17:24:59.519Z,156419.47
2022-08-01T17:27:27.027Z,156449.41
2022-08-01T17:29:54.432Z,156428.56
2022-08-01T17:32:21.843Z,156441.63
2022-08-01T17:34:49.990Z,156455.94
2022-08-01T17:37:17.386Z,156423.34
2022-08-01T17:39:44.865Z,156448.09
2022-08-01T17:42:13.719Z,156428.56
2022-08-01T17:44:41.588Z,156428.56
2022-08-01T17:47:24.232Z,156399.91
2022-08-01T17:50:03.812Z,156407.72
2022-08-01T17:52:32.077Z,156410.31
2022-08-01T17:55:00.068Z,156341.34
2022-08-01T17:57:30.750Z,156314.03
2022-08-01T17:59:58.857Z,156308.84
2022-08-01T18:02:27.158Z,156290.63
2022-08-01T18:04:54.605Z,156263.28
2022-08-01T18:08:00.644Z,156272.38
2022-08-01T18:10:11.642Z,156293.22
2022-08-01T18:12:41.619Z,156269.81
2022-08-01T18:15:09.884Z,156251.53
2022-08-01T18:17:42.653Z,156267.22
2022-08-01T18:20:11.517Z,156267.22
2022-08-01T18:22:39.441Z,156254.16
2022-08-01T18:25:08.873Z,156207.31
2022-08-01T18:28:18.976Z,156168.28
2022-08-01T18:30:28.884Z,156152.66
2022-08-01T18:32:56.835Z,156129.28
2022-08-01T18:35:33.048Z,156116.28
2022-08-01T18:38:12.279Z,156165.66
2022-08-01T18:40:41.306Z,156092.88
2022-08-01T18:43:08.887Z,156134.44
2022-08-01T18:45:42.597Z,156124.06
2022-08-01T18:48:10.586Z,156072.00
2022-08-01T18:50:38.389Z,156040.78
2022-08-01T18:53:05.934Z,156004.38
2022-08-01T18:55:33.350Z,156059.00
2022-08-01T18:58:00.770Z,156022.59
2022-08-01T19:00:28.438Z,156009.59
2022-08-01T19:02:57.224Z,156013.47
2022-08-01T19:05:24.660Z,155962.78
2022-08-01T19:08:06.616Z,155931.56
2022-08-01T19:10:35.016Z,155921.19
2022-08-01T19:13:02.916Z,155908.19
2022-08-01T19:15:30.534Z,155918.56
2022-08-01T19:17:59.278Z,155910.78
2022-08-01T19:20:26.970Z,155861.38
2022-08-01T19:22:54.462Z,155879.53
2022-08-01T19:25:22.635Z,155850.94
2022-08-01T19:27:51.288Z,155903.00
2022-08-01T19:30:19.925Z,155832.78
2022-08-01T19:32:49.205Z,155780.81
2022-08-01T19:35:17.961Z,155752.22
2022-08-01T19:37:47.611Z,155769.06
2022-08-01T19:40:26.622Z,155706.72
2022-08-01T19:42:56.854Z,155711.94
2022-08-01T19:45:24.694Z,155752.22
2022-08-01T19:47:56.720Z,155728.78
2022-08-01T19:50:26.588Z,155705.38
2022-08-01T19:52:55.986Z,155669.00
2022-08-01T19:55:25.228Z,155600.16
2022-08-01T20:00:42.657Z,155552.09
2022-08-01T20:03:11.048Z,155528.72
2022-08-01T20:05:40.890Z,155535.25
2022-08-01T20:08:08.927Z,155523.50
2022-08-01T20:10:38.360Z,155427.41
2022-08-01T20:13:06.202Z,155453.38
2022-08-01T20:15:33.604Z,155440.41
2022-08-01T20:18:01.447Z,155427.41
2022-08-01T20:20:28.916Z,155422.22
2022-08-01T20:22:58.968Z,155372.91
2022-08-01T20:25:39.530Z,155318.38
2022-08-01T20:28:10.646Z,155307.97
2022-08-01T20:30:38.403Z,155302.75
2022-08-01T20:33:07.003Z,155314.47
2022-08-01T20:35:51.721Z,155327.44
2022-08-01T20:38:32.531Z,155330.06
2022-08-01T20:41:02.731Z,155336.53
2022-08-01T20:43:30.824Z,155292.38
2022-08-01T20:45:58.913Z,155289.78
2022-08-01T20:48:27.936Z,155266.38
2022-08-01T20:51:13.337Z,155143.19
2022-08-01T20:53:43.636Z,155170.41
2022-08-01T20:56:16.806Z,155204.13
2022-08-01T20:58:58.583Z,155131.47
2022-08-01T21:01:29.469Z,155167.81
2022-08-01T21:04:09.643Z,155175.56
2022-08-01T21:06:38.834Z,155206.72
2022-08-01T21:09:07.964Z,155253.41
2022-08-01T21:11:42.766Z,155227.47
2022-08-01T21:14:13.037Z,155201.53
2022-08-01T21:16:44.570Z,155198.91
2022-08-01T21:19:19.951Z,155156.16
2022-08-01T21:21:52.131Z,155109.44
2022-08-01T21:24:25.478Z,155089.91
2022-08-01T21:26:53.491Z,155069.16
2022-08-01T21:29:22.344Z,155188.53
2022-08-01T21:32:11.360Z,155127.59
2022-08-01T21:34:40.066Z,155197.66
2022-08-01T21:37:09.187Z,155182.09
2022-08-01T21:39:39.132Z,155134.06
2022-08-01T21:42:09.409Z,155210.63
2022-08-01T21:44:39.275Z,155167.81
2022-08-01T21:47:11.969Z,155149.63
2022-08-01T21:49:40.324Z,155165.22
2022-08-01T21:52:12.033Z,155114.63
2022-08-01T21:54:53.963Z,155041.94
2022-08-01T21:57:30.218Z,155071.78
2022-08-01T22:00:07.469Z,154991.38
2022-08-01T22:02:39.014Z,155014.69
2022-08-01T22:05:09.039Z,155048.44
2022-08-01T22:07:40.318Z,155035.44
2022-08-01T22:10:13.764Z,155061.41
2022-08-01T22:12:41.236Z,155087.34
2022-08-01T22:15:09.780Z,155076.94
2022-08-01T22:17:37.494Z,155025.06
2022-08-01T22:20:06.328Z,155031.56
2022-08-01T22:22:51.131Z,154984.88
2022-08-01T22:25:21.415Z,155027.66
2022-08-01T22:28:08.923Z,155009.50
2022-08-01T22:30:41.526Z,154929.09
2022-08-01T22:33:17.240Z,154908.38
2022-08-01T22:35:46.189Z,154943.38
2022-08-01T22:38:13.753Z,154973.19
2022-08-01T22:40:48.923Z,154962.84
2022-08-01T22:43:25.558Z,154964.16
2022-08-01T22:46:01.624Z,154962.84
2022-08-01T22:48:36.795Z,154942.06
2022-08-01T22:51:08.782Z,154923.94
2022-08-01T22:53:46.785Z,154968.00
2022-08-01T22:56:15.793Z,154968.00
2022-08-01T22:58:44.653Z,154958.94
2022-08-01T23:01:21.153Z,154848.69
2022-08-01T23:03:51.758Z,154759.28
2022-08-01T23:06:23.817Z,154799.44
2022-08-01T23:08:51.463Z,154848.69
2022-08-01T23:11:23.240Z,154886.31
2022-08-01T23:13:52.984Z,154847.38
2022-08-01T23:16:21.255Z,154864.25
2022-08-01T23:18:50.176Z,154864.25
2022-08-01T23:21:19.229Z,154851.28
2022-08-01T23:23:48.020Z,154802.06
2022-08-01T23:26:16.061Z,154783.91
2022-08-01T23:28:46.569Z,154757.97
2022-08-01T23:31:14.962Z,154783.91
2022-08-01T23:33:42.402Z,154754.06
2022-08-01T23:36:09.891Z,154783.91
2022-08-01T23:38:37.372Z,154706.16
2022-08-01T23:41:14.698Z,154667.28
2022-08-01T23:43:52.387Z,154726.88
2022-08-01T23:46:21.377Z,154702.25
2022-08-01T23:48:48.885Z,154732.06
2022-08-01T23:51:24.334Z,154667.28
2022-08-01T23:53:51.991Z,154628.38
2022-08-01T23:56:25.396Z,154573.97
2022-08-01T23:58:54.316Z,154599.88
